Fort Chipewyan, Fort Chipewyan Airport (CYPY)

NameFort Chipewyan Airport
CityFort Chipewyan
CountryCanada
ICAOCYPY
IATAYPY
Altitude232 m
CoordinatesGoogle Map
Live Air TrafficLiveATC.net
METARCYPY 140100Z AUTO 35005KT 280V360 9SM -SN OVC017 M07/M09 A3001 RMK SLP184
2019-11-14 01:00:00 Wind: North-Northwest (350°) 2.57 m/s - Visibility: 14484.06 m - Weather: Light Snow - Temperature: -7 °C - Dew point: -9 °C - Humidity: 85.8% - Pressure: 1016.26 hPa

Sorry, no flights used the airport in this database.